sensor_id;sensor_type;location;lat;lon;timestamp;pressure;altitude;pressure_sealevel;temperature;humidity
9421;BME280;4749;51.398;5.466;2023-03-23T00:00:10;100080.59;;;12.94;100.00
9421;BME280;4749;51.398;5.466;2023-03-23T00:02:36;100096.44;;;12.95;100.00
9421;BME280;4749;51.398;5.466;2023-03-23T00:05:05;100106.06;;;12.96;100.00
9421;BME280;4749;51.398;5.466;2023-03-23T00:07:34;100079.63;;;13.00;100.00
9421;BME280;4749;51.398;5.466;2023-03-23T00:10:01;100064.63;;;13.03;100.00
9421;BME280;4749;51.398;5.466;2023-03-23T00:12:30;100072.50;;;13.05;100.00
9421;BME280;4749;51.398;5.466;2023-03-23T00:15:03;100090.06;;;13.06;100.00
9421;BME280;4749;51.398;5.466;2023-03-23T00:17:30;100095.31;;;13.07;100.00
9421;BME280;4749;51.398;5.466;2023-03-23T00:19:56;100079.47;;;13.07;100.00
9421;BME280;4749;51.398;5.466;2023-03-23T00:22:22;100066.22;;;13.10;100.00
9421;BME280;4749;51.398;5.466;2023-03-23T00:24:51;100072.34;;;13.11;100.00
9421;BME280;4749;51.398;5.466;2023-03-23T00:27:18;100082.03;;;13.12;100.00
9421;BME280;4749;51.398;5.466;2023-03-23T00:29:44;100078.50;;;13.11;100.00
9421;BME280;4749;51.398;5.466;2023-03-23T00:32:13;100078.50;;;13.11;100.00
9421;BME280;4749;51.398;5.466;2023-03-23T00:34:40;100075.88;;;13.13;100.00
9421;BME280;4749;51.398;5.466;2023-03-23T00:37:09;100070.59;;;13.13;100.00
9421;BME280;4749;51.398;5.466;2023-03-23T00:39:37;100078.50;;;13.13;100.00
9421;BME280;4749;51.398;5.466;2023-03-23T00:42:04;100075.00;;;13.12;100.00
9421;BME280;4749;51.398;5.466;2023-03-23T00:44:32;100089.97;;;13.12;100.00
9421;BME280;4749;51.398;5.466;2023-03-23T00:47:01;100075.88;;;13.13;100.00
9421;BME280;4749;51.398;5.466;2023-03-23T00:49:28;100072.28;;;13.15;100.00
9421;BME280;4749;51.398;5.466;2023-03-23T00:51:58;100065.19;;;13.17;100.00
9421;BME280;4749;51.398;5.466;2023-03-23T00:54:25;100070.44;;;13.19;100.00
9421;BME280;4749;51.398;5.466;2023-03-23T00:56:52;100060.72;;;13.22;100.00
9421;BME280;4749;51.398;5.466;2023-03-23T00:59:19;100068.63;;;13.24;100.00
9421;BME280;4749;51.398;5.466;2023-03-23T01:01:46;100065.06;;;13.25;100.00
9421;BME280;4749;51.398;5.466;2023-03-23T01:04:13;100072.09;;;13.26;100.00
9421;BME280;4749;51.398;5.466;2023-03-23T01:06:43;100069.41;;;13.28;100.00
9421;BME280;4749;51.398;5.466;2023-03-23T01:09:15;100068.50;;;13.30;100.00
9421;BME280;4749;51.398;5.466;2023-03-23T01:11:46;100072.88;;;13.31;100.00
9421;BME280;4749;51.398;5.466;2023-03-23T01:14:14;100054.41;;;13.31;100.00
9421;BME280;4749;51.398;5.466;2023-03-23T01:16:41;100044.75;;;13.30;100.00
9421;BME280;4749;51.398;5.466;2023-03-23T01:19:08;100040.38;;;13.28;100.00
9421;BME280;4749;51.398;5.466;2023-03-23T01:21:34;100042.16;;;13.27;100.00
9421;BME280;4749;51.398;5.466;2023-03-23T01:24:00;100032.53;;;13.24;100.00
9421;BME280;4749;51.398;5.466;2023-03-23T01:26:28;100023.78;;;13.22;100.00
9421;BME280;4749;51.398;5.466;2023-03-23T01:31:36;100030.84;;;13.22;100.00
9421;BME280;4749;51.398;5.466;2023-03-23T01:34:03;100032.59;;;13.21;100.00
9421;BME280;4749;51.398;5.466;2023-03-23T01:36:30;100025.59;;;13.20;100.00
9421;BME280;4749;51.398;5.466;2023-03-23T01:39:00;100026.47;;;13.18;100.00
9421;BME280;4749;51.398;5.466;2023-03-23T01:41:29;100019.47;;;13.17;100.00
9421;BME280;4749;51.398;5.466;2023-03-23T01:44:04;100034.38;;;13.19;100.00
9421;BME280;4749;51.398;5.466;2023-03-23T01:46:35;100025.56;;;13.19;100.00
9421;BME280;4749;51.398;5.466;2023-03-23T01:49:17;100030.84;;;13.19;100.00
9421;BME280;4749;51.398;5.466;2023-03-23T01:51:52;100041.44;;;13.20;100.00
9421;BME280;4749;51.398;5.466;2023-03-23T01:54:20;100044.03;;;13.22;100.00
9421;BME280;4749;51.398;5.466;2023-03-23T01:56:59;100036.97;;;13.22;100.00
9421;BME280;4749;51.398;5.466;2023-03-23T01:59:28;100016.69;;;13.24;100.00
9421;BME280;4749;51.398;5.466;2023-03-23T02:01:55;100017.56;;;13.25;100.00
9421;BME280;4749;51.398;5.466;2023-03-23T02:04:23;100013.16;;;13.26;100.00
9421;BME280;4749;51.398;5.466;2023-03-23T02:06:51;100007.84;;;13.27;100.00
9421;BME280;4749;51.398;5.466;2023-03-23T02:09:18;99992.91;;;13.26;100.00
9421;BME280;4749;51.398;5.466;2023-03-23T02:11:47;99989.34;;;13.27;100.00
9421;BME280;4749;51.398;5.466;2023-03-23T02:14:16;99993.78;;;13.27;100.00
9421;BME280;4749;51.398;5.466;2023-03-23T02:17:08;99999.00;;;13.28;100.00
9421;BME280;4749;51.398;5.466;2023-03-23T02:23:13;99997.19;;;13.32;100.00
9421;BME280;4749;51.398;5.466;2023-03-23T02:34:58;99984.69;;;13.40;100.00
9421;BME280;4749;51.398;5.466;2023-03-23T02:37:39;99978.41;;;13.44;100.00
9421;BME280;4749;51.398;5.466;2023-03-23T02:40:19;99973.19;;;13.42;100.00
9421;BME280;4749;51.398;5.466;2023-03-23T02:42:50;99974.97;;;13.42;100.00
9421;BME280;4749;51.398;5.466;2023-03-23T02:45:19;99973.16;;;13.44;100.00
9421;BME280;4749;51.398;5.466;2023-03-23T02:47:49;99974.88;;;13.45;100.00
9421;BME280;4749;51.398;5.466;2023-03-23T02:50:17;99981.06;;;13.45;100.00
9421;BME280;4749;51.398;5.466;2023-03-23T02:52:46;99975.72;;;13.47;100.00
9421;BME280;4749;51.398;5.466;2023-03-23T02:55:14;99972.16;;;13.49;100.00
9421;BME280;4749;51.398;5.466;2023-03-23T02:57:42;99980.97;;;13.48;100.00
9421;BME280;4749;51.398;5.466;2023-03-23T03:00:14;99977.44;;;13.49;100.00
9421;BME280;4749;51.398;5.466;2023-03-23T03:02:51;99978.22;;;13.53;100.00
9421;BME280;4749;51.398;5.466;2023-03-23T03:11:03;99976.47;;;13.52;100.00
9421;BME280;4749;51.398;5.466;2023-03-23T03:19:24;99982.66;;;13.51;100.00
9421;BME280;4749;51.398;5.466;2023-03-23T03:21:54;99970.41;;;13.48;100.00
9421;BME280;4749;51.398;5.466;2023-03-23T03:24:22;99986.25;;;13.48;100.00
9421;BME280;4749;51.398;5.466;2023-03-23T03:26:52;99985.34;;;13.49;100.00
9421;BME280;4749;51.398;5.466;2023-03-23T03:29:28;99972.16;;;13.49;100.00
9421;BME280;4749;51.398;5.466;2023-03-23T03:31:58;99980.06;;;13.49;100.00
9421;BME280;4749;51.398;5.466;2023-03-23T03:34:25;99974.78;;;13.49;100.00
9421;BME280;4749;51.398;5.466;2023-03-23T03:36:54;99973.00;;;13.50;100.00
9421;BME280;4749;51.398;5.466;2023-03-23T03:39:25;99973.06;;;13.48;100.00
9421;BME280;4749;51.398;5.466;2023-03-23T03:41:52;99980.16;;;13.45;100.00
9421;BME280;4749;51.398;5.466;2023-03-23T03:44:18;99985.44;;;13.45;100.00
9421;BME280;4749;51.398;5.466;2023-03-23T03:46:44;99985.44;;;13.46;100.00
9421;BME280;4749;51.398;5.466;2023-03-23T03:49:11;99990.66;;;13.48;100.00
9421;BME280;4749;51.398;5.466;2023-03-23T03:51:38;99987.16;;;13.47;100.00
9421;BME280;4749;51.398;5.466;2023-03-23T03:54:05;99980.16;;;13.46;100.00
9421;BME280;4749;51.398;5.466;2023-03-23T03:56:31;99989.75;;;13.49;100.00
9421;BME280;4749;51.398;5.466;2023-03-23T03:59:07;99992.38;;;13.50;100.00
9421;BME280;4749;51.398;5.466;2023-03-23T04:01:34;99999.50;;;13.47;100.00
9421;BME280;4749;51.398;5.466;2023-03-23T04:04:00;99994.22;;;13.47;100.00
9421;BME280;4749;51.398;5.466;2023-03-23T04:06:26;99992.41;;;13.49;100.00
9421;BME280;4749;51.398;5.466;2023-03-23T04:08:57;100000.19;;;13.53;100.00
9421;BME280;4749;51.398;5.466;2023-03-23T04:11:25;99987.84;;;13.56;100.00
9421;BME280;4749;51.398;5.466;2023-03-23T04:13:52;100007.16;;;13.58;100.00
9421;BME280;4749;51.398;5.466;2023-03-23T04:16:18;99998.38;;;13.57;100.00
9421;BME280;4749;51.398;5.466;2023-03-23T04:18:44;99988.63;;;13.59;100.00
9421;BME280;4749;51.398;5.466;2023-03-23T04:21:10;99999.19;;;13.59;100.00
9421;BME280;4749;51.398;5.466;2023-03-23T04:23:37;100001.84;;;13.59;100.00
9421;BME280;4749;51.398;5.466;2023-03-23T04:26:04;99996.59;;;13.58;100.00
9421;BME280;4749;51.398;5.466;2023-03-23T04:28:30;99993.09;;;13.57;100.00
9421;BME280;4749;51.398;5.466;2023-03-23T04:31:00;100003.56;;;13.60;100.00
9421;BME280;4749;51.398;5.466;2023-03-23T04:33:30;100007.09;;;13.61;100.00
9421;BME280;4749;51.398;5.466;2023-03-23T04:36:00;100014.31;;;13.52;100.00
9421;BME280;4749;51.398;5.466;2023-03-23T04:38:27;100020.53;;;13.50;100.00
9421;BME280;4749;51.398;5.466;2023-03-23T04:40:55;100024.75;;;13.59;100.00
9421;BME280;4749;51.398;5.466;2023-03-23T04:43:23;100022.03;;;13.62;100.00
9421;BME280;4749;51.398;5.466;2023-03-23T04:45:55;100020.06;;;13.70;100.00
9421;BME280;4749;51.398;5.466;2023-03-23T04:48:29;100016.25;;;13.46;100.00
9421;BME280;4749;51.398;5.466;2023-03-23T04:50:56;100011.47;;;13.62;100.00
9421;BME280;4749;51.398;5.466;2023-03-23T04:53:22;100029.06;;;13.61;100.00
9421;BME280;4749;51.398;5.466;2023-03-23T04:55:49;100033.44;;;13.64;100.00
9421;BME280;4749;51.398;5.466;2023-03-23T04:58:16;100020.28;;;13.62;100.00
9421;BME280;4749;51.398;5.466;2023-03-23T05:00:42;100017.78;;;13.56;100.00
9421;BME280;4749;51.398;5.466;2023-03-23T05:03:12;100021.31;;;13.55;100.00
9421;BME280;4749;51.398;5.466;2023-03-23T05:05:43;100022.19;;;13.56;100.00
9421;BME280;4749;51.398;5.466;2023-03-23T05:08:13;100018.59;;;13.58;100.00
9421;BME280;4749;51.398;5.466;2023-03-23T05:10:40;100031.84;;;13.57;100.00
9421;BME280;4749;51.398;5.466;2023-03-23T05:13:06;100023.00;;;13.58;100.00
9421;BME280;4749;51.398;5.466;2023-03-23T05:15:32;100036.19;;;13.59;100.00
9421;BME280;4749;51.398;5.466;2023-03-23T05:17:58;100025.66;;;13.58;100.00
9421;BME280;4749;51.398;5.466;2023-03-23T05:20:24;100023.06;;;13.56;100.00
9421;BME280;4749;51.398;5.466;2023-03-23T05:22:51;100034.44;;;13.58;100.00
9421;BME280;4749;51.398;5.466;2023-03-23T05:25:18;100030.31;;;13.46;100.00
9421;BME280;4749;51.398;5.466;2023-03-23T05:27:48;100026.81;;;13.46;100.00
9421;BME280;4749;51.398;5.466;2023-03-23T05:30:21;100036.50;;;13.44;100.00
9421;BME280;4749;51.398;5.466;2023-03-23T05:32:49;100030.44;;;13.40;100.00
9421;BME280;4749;51.398;5.466;2023-03-23T05:35:18;100031.38;;;13.38;100.00
9421;BME280;4749;51.398;5.466;2023-03-23T05:37:46;100035.84;;;13.34;100.00
9421;BME280;4749;51.398;5.466;2023-03-23T05:40:12;100039.34;;;13.35;100.00
9421;BME280;4749;51.398;5.466;2023-03-23T05:42:40;100034.16;;;13.32;100.00
9421;BME280;4749;51.398;5.466;2023-03-23T05:45:11;100025.28;;;13.34;100.00
9421;BME280;4749;51.398;5.466;2023-03-23T05:47:41;100037.53;;;13.37;100.00
9421;BME280;4749;51.398;5.466;2023-03-23T05:50:08;100041.06;;;13.37;100.00
9421;BME280;4749;51.398;5.466;2023-03-23T05:52:36;100043.63;;;13.40;100.00
9421;BME280;4749;51.398;5.466;2023-03-23T05:55:03;100047.16;;;13.41;100.00
9421;BME280;4749;51.398;5.466;2023-03-23T05:57:29;100040.97;;;13.42;100.00
9421;BME280;4749;51.398;5.466;2023-03-23T05:59:56;100035.69;;;13.42;100.00
9421;BME280;4749;51.398;5.466;2023-03-23T06:02:24;100042.69;;;13.43;100.00
9421;BME280;4749;51.398;5.466;2023-03-23T06:04:53;100047.97;;;13.43;100.00
9421;BME280;4749;51.398;5.466;2023-03-23T06:07:26;100042.66;;;13.44;100.00
9421;BME280;4749;51.398;5.466;2023-03-23T06:09:52;100041.81;;;13.42;100.00
9421;BME280;4749;51.398;5.466;2023-03-23T06:12:18;100032.88;;;13.49;100.00
9421;BME280;4749;51.398;5.466;2023-03-23T06:14:49;100045.13;;;13.52;100.00
9421;BME280;4749;51.398;5.466;2023-03-23T06:17:16;100050.38;;;13.53;100.00
9421;BME280;4749;51.398;5.466;2023-03-23T06:19:45;100045.03;;;13.57;100.00
9421;BME280;4749;51.398;5.466;2023-03-23T06:22:13;100059.94;;;13.59;100.00
9421;BME280;4749;51.398;5.466;2023-03-23T06:24:39;100061.63;;;13.62;100.00
9421;BME280;4749;51.398;5.466;2023-03-23T06:27:05;100077.44;;;13.65;100.00
9421;BME280;4749;51.398;5.466;2023-03-23T06:29:31;100066.88;;;13.65;100.00
9421;BME280;4749;51.398;5.466;2023-03-23T06:32:01;100068.59;;;13.66;100.00
9421;BME280;4749;51.398;5.466;2023-03-23T06:34:29;100077.41;;;13.66;100.00
9421;BME280;4749;51.398;5.466;2023-03-23T06:36:56;100078.25;;;13.67;100.00
9421;BME280;4749;51.398;5.466;2023-03-23T06:39:22;100081.72;;;13.69;100.00
9421;BME280;4749;51.398;5.466;2023-03-23T06:41:49;100086.88;;;13.75;100.00
9421;BME280;4749;51.398;5.466;2023-03-23T06:44:15;100090.41;;;13.75;100.00
9421;BME280;4749;51.398;5.466;2023-03-23T06:46:42;100085.06;;;13.77;100.00
9421;BME280;4749;51.398;5.466;2023-03-23T06:49:08;100095.59;;;13.78;100.00
9421;BME280;4749;51.398;5.466;2023-03-23T06:51:34;100095.59;;;13.80;100.00
9421;BME280;4749;51.398;5.466;2023-03-23T06:54:01;100110.50;;;13.83;100.00
9421;BME280;4749;51.398;5.466;2023-03-23T06:56:27;100102.81;;;13.72;100.00
9421;BME280;4749;51.398;5.466;2023-03-23T06:58:53;100103.81;;;13.66;100.00
9421;BME280;4749;51.398;5.466;2023-03-23T07:01:19;100104.84;;;13.59;100.00
9421;BME280;4749;51.398;5.466;2023-03-23T07:03:45;100094.31;;;13.58;100.00
9421;BME280;4749;51.398;5.466;2023-03-23T07:06:11;100099.63;;;13.56;100.00
9421;BME280;4749;51.398;5.466;2023-03-23T07:08:38;100090.88;;;13.54;100.00
9421;BME280;4749;51.398;5.466;2023-03-23T07:11:04;100093.59;;;13.49;100.00
9421;BME280;4749;51.398;5.466;2023-03-23T07:13:31;100097.03;;;13.53;100.00
9421;BME280;4749;51.398;5.466;2023-03-23T07:15:57;100094.38;;;13.55;100.00
9421;BME280;4749;51.398;5.466;2023-03-23T07:18:24;100108.41;;;13.57;100.00
9421;BME280;4749;51.398;5.466;2023-03-23T07:20:51;100111.91;;;13.59;100.00
9421;BME280;4749;51.398;5.466;2023-03-23T07:23:18;100107.47;;;13.59;100.00
9421;BME280;4749;51.398;5.466;2023-03-23T07:25:46;100106.66;;;13.57;100.00
9421;BME280;4749;51.398;5.466;2023-03-23T07:28:15;100113.63;;;13.60;100.00
9421;BME280;4749;51.398;5.466;2023-03-23T07:30:41;100099.50;;;13.62;100.00
9421;BME280;4749;51.398;5.466;2023-03-23T07:33:09;100101.31;;;13.59;100.00
9421;BME280;4749;51.398;5.466;2023-03-23T07:35:35;100106.66;;;13.57;100.00
9421;BME280;4749;51.398;5.466;2023-03-23T07:38:03;100104.88;;;13.58;100.00
9421;BME280;4749;51.398;5.466;2023-03-23T07:40:30;100110.13;;;13.59;100.00
9421;BME280;4749;51.398;5.466;2023-03-23T07:42:59;100148.94;;;13.56;100.00
9421;BME280;4749;51.398;5.466;2023-03-23T07:45:26;100221.31;;;13.44;100.00
9421;BME280;4749;51.398;5.466;2023-03-23T07:47:52;100185.59;;;13.26;100.00
9421;BME280;4749;51.398;5.466;2023-03-23T07:50:19;100170.00;;;13.11;100.00
9421;BME280;4749;51.398;5.466;2023-03-23T07:52:48;100172.91;;;12.97;100.00
9421;BME280;4749;51.398;5.466;2023-03-23T07:55:14;100158.97;;;12.89;100.00
9421;BME280;4749;51.398;5.466;2023-03-23T07:57:50;100165.31;;;12.77;100.00
9421;BME280;4749;51.398;5.466;2023-03-23T08:00:18;100183.13;;;12.64;100.00
9421;BME280;4749;51.398;5.466;2023-03-23T08:02:52;100168.38;;;12.51;100.00
9421;BME280;4749;51.398;5.466;2023-03-23T08:05:19;100187.06;;;12.37;100.00
9421;BME280;4749;51.398;5.466;2023-03-23T08:07:48;100186.34;;;12.28;100.00
9421;BME280;4749;51.398;5.466;2023-03-23T08:10:16;100190.75;;;12.24;100.00
9421;BME280;4749;51.398;5.466;2023-03-23T08:12:44;100196.06;;;12.23;100.00
9421;BME280;4749;51.398;5.466;2023-03-23T08:15:13;100211.00;;;12.22;100.00
9421;BME280;4749;51.398;5.466;2023-03-23T08:17:41;100219.88;;;12.15;100.00
9421;BME280;4749;51.398;5.466;2023-03-23T08:20:09;100225.19;;;12.10;100.00
9421;BME280;4749;51.398;5.466;2023-03-23T08:22:40;100228.75;;;12.08;100.00
9421;BME280;4749;51.398;5.466;2023-03-23T08:25:09;100229.56;;;12.15;100.00
9421;BME280;4749;51.398;5.466;2023-03-23T08:27:36;100243.47;;;12.24;100.00
9421;BME280;4749;51.398;5.466;2023-03-23T08:30:04;100230.94;;;12.42;100.00
9421;BME280;4749;51.398;5.466;2023-03-23T08:32:31;100242.94;;;12.62;100.00
9421;BME280;4749;51.398;5.466;2023-03-23T08:34:58;100235.66;;;12.77;100.00
9421;BME280;4749;51.398;5.466;2023-03-23T08:37:24;100224.19;;;12.81;100.00
9421;BME280;4749;51.398;5.466;2023-03-23T08:39:53;100225.94;;;12.80;100.00
9421;BME280;4749;51.398;5.466;2023-03-23T08:42:19;100225.63;;;12.99;100.00
9421;BME280;4749;51.398;5.466;2023-03-23T08:44:45;100227.91;;;13.21;100.00
9421;BME280;4749;51.398;5.466;2023-03-23T08:47:11;100238.31;;;13.31;100.00
9421;BME280;4749;51.398;5.466;2023-03-23T08:49:37;100243.53;;;13.34;100.00
9421;BME280;4749;51.398;5.466;2023-03-23T08:52:03;100232.06;;;13.35;100.00
9421;BME280;4749;51.398;5.466;2023-03-23T08:54:29;100219.53;;;13.47;100.00
9421;BME280;4749;51.398;5.466;2023-03-23T08:57:02;100216.91;;;13.44;100.00
9421;BME280;4749;51.398;5.466;2023-03-23T08:59:28;100212.69;;;13.37;100.00
9421;BME280;4749;51.398;5.466;2023-03-23T09:01:54;100217.91;;;13.39;100.00
9421;BME280;4749;51.398;5.466;2023-03-23T09:04:21;100219.47;;;13.49;100.00
9421;BME280;4749;51.398;5.466;2023-03-23T09:06:47;100226.25;;;13.64;100.00
9421;BME280;4749;51.398;5.466;2023-03-23T09:09:13;100241.09;;;13.69;100.00
9421;BME280;4749;51.398;5.466;2023-03-23T09:11:39;100246.53;;;13.60;100.00
9421;BME280;4749;51.398;5.466;2023-03-23T09:14:07;100238.97;;;13.42;100.00
9421;BME280;4749;51.398;5.466;2023-03-23T09:16:34;100249.91;;;13.22;100.00
9421;BME280;4749;51.398;5.466;2023-03-23T09:19:00;100259.75;;;13.09;100.00
9421;BME280;4749;51.398;5.466;2023-03-23T09:21:28;100243.00;;;13.12;100.00
9421;BME280;4749;51.398;5.466;2023-03-23T09:23:55;100247.25;;;13.22;100.00
9421;BME280;4749;51.398;5.466;2023-03-23T09:26:27;100244.75;;;13.11;100.00
9421;BME280;4749;51.398;5.466;2023-03-23T09:28:54;100232.59;;;13.04;100.00
9421;BME280;4749;51.398;5.466;2023-03-23T09:31:22;100236.09;;;13.05;100.00
9421;BME280;4749;51.398;5.466;2023-03-23T09:33:49;100228.22;;;13.02;100.00
9421;BME280;4749;51.398;5.466;2023-03-23T09:36:19;100230.44;;;13.29;100.00
9421;BME280;4749;51.398;5.466;2023-03-23T09:38:50;100236.81;;;13.64;100.00
9421;BME280;4749;51.398;5.466;2023-03-23T09:44:17;100243.19;;;13.95;100.00
9421;BME280;4749;51.398;5.466;2023-03-23T09:49:43;100253.72;;;14.79;100.00
9421;BME280;4749;51.398;5.466;2023-03-23T09:52:15;100252.06;;;15.10;100.00
9421;BME280;4749;51.398;5.466;2023-03-23T09:54:51;100244.25;;;15.38;100.00
9421;BME280;4749;51.398;5.466;2023-03-23T10:03:21;100239.81;;;15.06;100.00
9421;BME280;4749;51.398;5.466;2023-03-23T10:05:52;100243.56;;;14.98;100.00
9421;BME280;4749;51.398;5.466;2023-03-23T10:08:29;100241.38;;;15.15;100.00
9421;BME280;4749;51.398;5.466;2023-03-23T10:20:21;100254.38;;;14.88;100.00
9421;BME280;4749;51.398;5.466;2023-03-23T10:25:53;100255.19;;;14.55;100.00
9421;BME280;4749;51.398;5.466;2023-03-23T10:28:39;100257.19;;;14.42;100.00
9421;BME280;4749;51.398;5.466;2023-03-23T10:31:13;100260.38;;;14.58;100.00
9421;BME280;4749;51.398;5.466;2023-03-23T10:33:50;100260.25;;;14.64;100.00
9421;BME280;4749;51.398;5.466;2023-03-23T10:36:29;100265.06;;;14.84;100.00
9421;BME280;4749;51.398;5.466;2023-03-23T10:39:19;100259.50;;;15.30;100.00
9421;BME280;4749;51.398;5.466;2023-03-23T10:41:47;100257.31;;;15.46;100.00
9421;BME280;4749;51.398;5.466;2023-03-23T10:44:24;100264.03;;;15.59;100.00
9421;BME280;4749;51.398;5.466;2023-03-23T10:47:06;100253.66;;;15.84;100.00
9421;BME280;4749;51.398;5.466;2023-03-23T10:49:55;100257.44;;;16.05;100.00
9421;BME280;4749;51.398;5.466;2023-03-23T10:52:35;100255.00;;;16.28;100.00
9421;BME280;4749;51.398;5.466;2023-03-23T10:55:05;100255.13;;;16.53;100.00
9421;BME280;4749;51.398;5.466;2023-03-23T10:57:37;100259.50;;;16.84;100.00
9421;BME280;4749;51.398;5.466;2023-03-23T11:00:20;100254.88;;;16.91;100.00
9421;BME280;4749;51.398;5.466;2023-03-23T11:06:20;100252.47;;;17.09;100.00
9421;BME280;4749;51.398;5.466;2023-03-23T11:09:03;100254.34;;;17.06;100.00
9421;BME280;4749;51.398;5.466;2023-03-23T11:11:32;100262.53;;;17.00;100.00
9421;BME280;4749;51.398;5.466;2023-03-23T11:16:56;100263.53;;;16.96;100.00
9421;BME280;4749;51.398;5.466;2023-03-23T11:19:33;100273.78;;;16.80;100.00
9421;BME280;4749;51.398;5.466;2023-03-23T11:24:37;100262.66;;;17.22;100.00
9421;BME280;4749;51.398;5.466;2023-03-23T11:27:07;100271.09;;;17.34;100.00
9421;BME280;4749;51.398;5.466;2023-03-23T11:29:47;100263.75;;;17.42;100.00
9421;BME280;4749;51.398;5.466;2023-03-23T11:32:15;100273.31;;;17.73;100.00
9421;BME280;4749;51.398;5.466;2023-03-23T11:34:48;100274.13;;;18.00;100.00
9421;BME280;4749;51.398;5.466;2023-03-23T11:37:42;100276.59;;;18.28;100.00
9421;BME280;4749;51.398;5.466;2023-03-23T11:43:27;100274.00;;;18.50;100.00
9421;BME280;4749;51.398;5.466;2023-03-23T11:45:37;100280.50;;;18.65;100.00
9421;BME280;4749;51.398;5.466;2023-03-23T11:48:40;100268.78;;;18.70;100.00
9421;BME280;4749;51.398;5.466;2023-03-23T11:56:54;100282.03;;;18.72;100.00
9421;BME280;4749;51.398;5.466;2023-03-23T11:59:33;100276.56;;;18.75;100.00
9421;BME280;4749;51.398;5.466;2023-03-23T12:05:30;100272.00;;;19.00;100.00
9421;BME280;4749;51.398;5.466;2023-03-23T12:08:28;100264.06;;;18.99;100.00
9421;BME280;4749;51.398;5.466;2023-03-23T12:17:10;100253.66;;;18.47;100.00
9421;BME280;4749;51.398;5.466;2023-03-23T12:26:04;100271.06;;;18.56;100.00
9421;BME280;4749;51.398;5.466;2023-03-23T12:31:58;100252.81;;;18.47;100.00
9421;BME280;4749;51.398;5.466;2023-03-23T12:37:18;100245.69;;;18.47;100.00
9421;BME280;4749;51.398;5.466;2023-03-23T12:40:50;100247.97;;;18.80;100.00
9421;BME280;4749;51.398;5.466;2023-03-23T12:43:48;100241.03;;;18.98;100.00
9421;BME280;4749;51.398;5.466;2023-03-23T12:49:32;100223.31;;;18.75;100.00
9421;BME280;4749;51.398;5.466;2023-03-23T12:52:35;100225.06;;;18.76;100.00
9421;BME280;4749;51.398;5.466;2023-03-23T12:56:02;100232.63;;;18.87;100.00
9421;BME280;4749;51.398;5.466;2023-03-23T12:58:37;100213.66;;;18.94;100.00
9421;BME280;4749;51.398;5.466;2023-03-23T13:06:35;100230.16;;;18.13;100.00
9421;BME280;4749;51.398;5.466;2023-03-23T13:09:07;100228.94;;;18.22;100.00
9421;BME280;4749;51.398;5.466;2023-03-23T13:11:41;100240.00;;;18.56;100.00
9421;BME280;4749;51.398;5.466;2023-03-23T13:17:35;100231.59;;;18.45;100.00
9421;BME280;4749;51.398;5.466;2023-03-23T13:23:31;100203.88;;;18.51;100.00
9421;BME280;4749;51.398;5.466;2023-03-23T13:26:27;100206.13;;;18.83;100.00
9421;BME280;4749;51.398;5.466;2023-03-23T13:29:14;100216.66;;;19.07;100.00
9421;BME280;4749;51.398;5.466;2023-03-23T13:31:41;100205.66;;;18.94;100.00
9421;BME280;4749;51.398;5.466;2023-03-23T13:34:21;100207.81;;;18.63;100.00
9421;BME280;4749;51.398;5.466;2023-03-23T13:42:31;100203.22;;;18.68;100.00
9421;BME280;4749;51.398;5.466;2023-03-23T13:45:22;100202.38;;;18.66;100.00
9421;BME280;4749;51.398;5.466;2023-03-23T13:48:02;100211.88;;;18.49;100.00
9421;BME280;4749;51.398;5.466;2023-03-23T13:50:30;100201.97;;;18.31;100.00
9421;BME280;4749;51.398;5.466;2023-03-23T13:53:14;100199.00;;;18.17;100.00
9421;BME280;4749;51.398;5.466;2023-03-23T13:55:47;100195.56;;;17.91;100.00
9421;BME280;4749;51.398;5.466;2023-03-23T13:58:24;100195.66;;;17.63;100.00
9421;BME280;4749;51.398;5.466;2023-03-23T14:01:16;100199.16;;;17.40;100.00
9421;BME280;4749;51.398;5.466;2023-03-23T14:03:49;100207.75;;;17.22;100.00
9421;BME280;4749;51.398;5.466;2023-03-23T14:06:21;100222.94;;;17.19;100.00
9421;BME280;4749;51.398;5.466;2023-03-23T14:08:53;100216.59;;;17.48;100.00
9421;BME280;4749;51.398;5.466;2023-03-23T14:11:25;100214.59;;;17.54;100.00
9421;BME280;4749;51.398;5.466;2023-03-23T14:14:16;100218.91;;;17.58;100.00
9421;BME280;4749;51.398;5.466;2023-03-23T14:16:44;100214.59;;;17.54;100.00
9421;BME280;4749;51.398;5.466;2023-03-23T14:19:28;100199.91;;;17.44;100.00
9421;BME280;4749;51.398;5.466;2023-03-23T14:21:59;100198.66;;;17.29;100.00
9421;BME280;4749;51.398;5.466;2023-03-23T14:24:38;100199.69;;;17.25;100.00
9421;BME280;4749;51.398;5.466;2023-03-23T14:29:33;100199.03;;;17.19;100.00
9421;BME280;4749;51.398;5.466;2023-03-23T14:32:00;100196.50;;;17.15;100.00
9421;BME280;4749;51.398;5.466;2023-03-23T14:34:30;100183.38;;;17.11;100.00
9421;BME280;4749;51.398;5.466;2023-03-23T14:36:57;100178.50;;;16.99;100.00
9421;BME280;4749;51.398;5.466;2023-03-23T14:39:32;100169.34;;;16.81;100.00
9421;BME280;4749;51.398;5.466;2023-03-23T14:42:11;100160.09;;;16.65;100.00
9421;BME280;4749;51.398;5.466;2023-03-23T14:44:42;100161.63;;;16.45;100.00
9421;BME280;4749;51.398;5.466;2023-03-23T14:47:38;100153.00;;;16.39;100.00
9421;BME280;4749;51.398;5.466;2023-03-23T14:50:35;100142.31;;;16.42;100.00
9421;BME280;4749;51.398;5.466;2023-03-23T14:53:31;100168.78;;;16.15;100.00
9421;BME280;4749;51.398;5.466;2023-03-23T14:56:04;100141.00;;;16.27;100.00
9421;BME280;4749;51.398;5.466;2023-03-23T14:58:32;100161.81;;;16.67;100.00
9421;BME280;4749;51.398;5.466;2023-03-23T15:01:07;100148.31;;;16.75;100.00
9421;BME280;4749;51.398;5.466;2023-03-23T15:03:39;100152.94;;;16.68;100.00
9421;BME280;4749;51.398;5.466;2023-03-23T15:06:17;100166.81;;;16.50;100.00
9421;BME280;4749;51.398;5.466;2023-03-23T15:08:46;100173.66;;;16.29;100.00
9421;BME280;4749;51.398;5.466;2023-03-23T15:13:51;100163.97;;;16.28;100.00
9421;BME280;4749;51.398;5.466;2023-03-23T15:16:26;100163.81;;;16.32;100.00
9421;BME280;4749;51.398;5.466;2023-03-23T15:19:02;100144.47;;;16.29;100.00